2022年7月2日

时间 代码 天气 温度 能见度 天花板 METAR/SPECI
9:00 上午
V
61 °F 6¼ mi+ - 180° 180° 4 kt METAR LFLC 020700Z AUTO 18004KT 090V240 CAVOK 16/10 Q1021 NOSIG
8:30 上午
V
59 °F 6¼ mi+ - Var Var 3 kt METAR LFLC 020630Z AUTO VRB03KT CAVOK 15/10 Q1022 NOSIG
8:00 上午
V
55 °F 6¼ mi+ - Var Var 2 kt METAR LFLC 020600Z AUTO VRB02KT CAVOK 13/10 Q1022 NOSIG
7:30 上午
V
54 °F 6¼ mi+ - Var Var 2 kt METAR LFLC 020530Z AUTO VRB02KT CAVOK 12/09 Q1022 NOSIG
7:00 上午
V
52 °F 6¼ mi+ - 070° 070° 3 kt METAR LFLC 020500Z AUTO 07003KT CAVOK 11/09 Q1022 TEMPO 16010KT
6:30 上午
V
50 °F 6¼ mi+ - Var Var 1 kt METAR LFLC 020430Z AUTO VRB01KT CAVOK 10/08 Q1022 NOSIG
6:00 上午
V
50 °F 6¼ mi+ - 250° 250° 4 kt METAR LFLC 020400Z AUTO 25004KT CAVOK 10/08 Q1022 TEMPO 16010KT
5:30 上午
V
50 °F 6¼ mi+ - 060° 060° 4 kt METAR LFLC 020330Z AUTO 06004KT CAVOK 10/08 Q1022 TEMPO 16010KT
5:00 上午
V
50 °F 6¼ mi+ - Var Var 3 kt METAR LFLC 020300Z AUTO VRB03KT CAVOK 10/08 Q1022 NOSIG
4:30 上午
V
52 °F 6¼ mi+ - Var Var 2 kt METAR LFLC 020230Z AUTO VRB02KT CAVOK 11/08 Q1022 NOSIG
4:00 上午
V
52 °F 6¼ mi+ - 030° 030° 2 kt METAR LFLC 020200Z AUTO 03002KT CAVOK 11/09 Q1022 NOSIG
3:30 上午
V
52 °F 6¼ mi+ - 140° 140° 2 kt METAR LFLC 020130Z AUTO 14002KT CAVOK 11/08 Q1022 NOSIG
3:00 上午
V
52 °F 6¼ mi+ - Var 000° 0 kt METAR LFLC 020100Z AUTO 00000KT CAVOK 11/09 Q1022 NOSIG
2:30 上午
V
54 °F 6¼ mi+ - 150° 150° 2 kt METAR LFLC 020030Z AUTO 15002KT CAVOK 12/09 Q1022 NOSIG
2:00 上午
V
52 °F 6¼ mi+ - Var 000° 0 kt METAR LFLC 020000Z AUTO 00000KT CAVOK 11/09 Q1022 NOSIG
1:30 上午
V
52 °F 6¼ mi+ - Var 000° 0 kt METAR LFLC 012330Z AUTO 00000KT CAVOK 11/09 Q1022 NOSIG
1:00 上午
V
52 °F 6¼ mi+ - 270° 270° 2 kt METAR LFLC 012300Z AUTO 27002KT CAVOK 11/09 Q1022 NOSIG
12:30 上午
V
54 °F 6¼ mi+ - 300° 300° 2 kt METAR LFLC 012230Z AUTO 30002KT CAVOK 12/09 Q1022 NOSIG
12:00 上午
V
57 °F 6¼ mi+ - 280° 280° 1 kt METAR LFLC 012200Z AUTO 28001KT CAVOK 14/10 Q1022 NOSIG

2022年7月1日

时间 代码 天气 温度 能见度 天花板 METAR/SPECI
11:30 下午
V
59 °F 6¼ mi+ - Var 000° 0 kt METAR LFLC 012130Z AUTO 00000KT CAVOK 15/09 Q1022 NOSIG
11:00 下午
V
61 °F 6¼ mi+ - 340° 340° 4 kt METAR LFLC 012100Z AUTO 34004KT CAVOK 16/09 Q1022 NOSIG
10:30 下午
V
61 °F 6¼ mi+ - 340° 340° 4 kt METAR LFLC 012030Z AUTO 34004KT CAVOK 16/09 Q1022 NOSIG
10:00 下午
V
63 °F 6¼ mi+ - 010° 010° 4 kt METAR LFLC 012000Z AUTO 01004KT CAVOK 17/09 Q1022 NOSIG
9:30 下午
V
63 °F 6¼ mi+ - 010° 010° 4 kt METAR LFLC 011930Z AUTO 01004KT CAVOK 17/10 Q1021 NOSIG
9:00 下午
V
66 °F 6¼ mi+ - 040° 040° 5 kt METAR LFLC 011900Z AUTO 04005KT CAVOK 19/09 Q1021 NOSIG
8:30 下午
V
68 °F 6¼ mi+ - 040° 040° 5 kt METAR LFLC 011830Z AUTO 04005KT CAVOK 20/10 Q1021 NOSIG
8:00 下午
V
70 °F 6¼ mi+ - 030° 030° 6 kt METAR LFLC 011800Z AUTO 03006KT 350V070 CAVOK 21/09 Q1021 NOSIG
7:30 下午
V
70 °F 6¼ mi+ - 020° 020° 6 kt METAR LFLC 011730Z AUTO 02006KT 330V050 CAVOK 21/09 Q1021 NOSIG
7:00 下午
V
70 °F 6¼ mi+ - 020° 020° 7 kt METAR LFLC 011700Z AUTO 02007KT 350V060 9999 FEW062 21/09 Q1021 NOSIG
6:30 下午
V
70 °F 6¼ mi+ - 040° 040° 6 kt METAR LFLC 011630Z AUTO 04006KT 360V080 9999 FEW062 21/09 Q1021 NOSIG
6:00 下午
V
70 °F 6¼ mi+ - 010° 010° 5 kt METAR LFLC 011600Z AUTO 01005KT 280V050 CAVOK 21/09 Q1021 NOSIG
5:30 下午
V
70 °F 6¼ mi+ - 010° 010° 7 kt METAR LFLC 011530Z AUTO 01007KT 340V060 9999 FEW062 21/09 Q1021 NOSIG
5:00 下午
V
70 °F 6¼ mi+ - 060° 060° 7 kt METAR LFLC 011500Z AUTO 06007KT 020V090 9999 FEW011 SCT060 21/10 Q1021 NOSIG
4:30 下午
V
70 °F 6¼ mi+ - 050° 050° 9 kt METAR LFLC 011430Z AUTO 05009KT 360V090 9999 FEW060 21/09 Q1021 NOSIG
4:00 下午
V
70 °F 6¼ mi+ - 050° 050° 7 kt METAR LFLC 011400Z AUTO 05007KT 360V100 9999 FEW058 21/10 Q1021 NOSIG
3:30 下午
V
68 °F 6¼ mi+ - Var Var 5 kt METAR LFLC 011330Z AUTO VRB05KT 9999 SCT056 20/09 Q1021 NOSIG
3:00 下午
V
68 °F 6¼ mi+ - Var Var 4 kt METAR LFLC 011300Z AUTO VRB04KT 9999 SCT054 20/09 Q1021 NOSIG
2:30 下午
V
68 °F 6¼ mi+ 6.000 ft 060° 060° 5 kt METAR LFLC 011230Z AUTO 06005KT 010V100 9999 SCT050 BKN060 20/09 Q1021 NOSIG
2:00 下午
V
68 °F 6¼ mi+ - 040° 040° 6 kt METAR LFLC 011200Z AUTO 04006KT 350V150 9999 SCT056 20/11 Q1021 NOSIG
1:30 下午
V
66 °F 6¼ mi+ 5.600 ft Var Var 4 kt METAR LFLC 011130Z AUTO VRB04KT 9999 FEW046 BKN056 19/08 Q1021 NOSIG
1:00 下午
V
64 °F 6¼ mi+ 4.900 ft Var Var 5 kt METAR LFLC 011100Z AUTO VRB05KT 9999 FEW042 BKN049 BKN056 18/10 Q1021 NOSIG
12:30 下午
V
66 °F 6¼ mi+ 4.200 ft 050° 050° 4 kt METAR LFLC 011030Z AUTO 05004KT 010V130 9999 BKN042 BKN050 19/10 Q1021 NOSIG
12:00 下午
V
63 °F 6¼ mi+ 5.200 ft 100° 100° 5 kt METAR LFLC 011000Z AUTO 10005KT 050V180 9999 FEW034 SCT045 BKN052 17/10 Q1021 NOSIG
11:30 上午
V
64 °F 6¼ mi+ 4.000 ft 040° 040° 4 kt METAR LFLC 010930Z AUTO 04004KT 360V090 9999 FEW031 BKN040 BKN049 18/10 Q1021 NOSIG
11:00 上午
V
63 °F 6¼ mi+ 3.500 ft 090° 090° 4 kt METAR LFLC 010900Z AUTO 09004KT 030V140 9999 SCT029 BKN035 BKN042 17/11 Q1021 NOSIG
10:30 上午
M
61 °F 6¼ mi+ 2.800 ft 040° 040° 5 kt METAR LFLC 010830Z AUTO 04005KT 360V090 9999 BKN028 BKN040 BKN046 16/11 Q1021 NOSIG
10:00 上午
V
61 °F 6¼ mi+ 3.200 ft 040° 040° 6 kt METAR LFLC 010800Z AUTO 04006KT 010V080 9999 SCT024 BKN032 BKN050 16/12 Q1021 NOSIG
9:30 上午
V
61 °F 6¼ mi+ 4.900 ft 030° 030° 4 kt METAR LFLC 010730Z AUTO 03004KT 330V070 9999 BKN049 16/11 Q1021 NOSIG
9:00 上午
V
59 °F 6¼ mi+ - 040° 040° 4 kt METAR LFLC 010700Z AUTO 04004KT 360V070 9999 FEW056 15/11 Q1021 TEMPO 2000 MIFG
8:30 上午
V
59 °F 6¼ mi+ - Var Var 3 kt METAR LFLC 010630Z AUTO VRB03KT 9999 FEW006 15/12 Q1021 TEMPO 2000 MIFG
8:00 上午
V
57 °F 6¼ mi+ 5.600 ft Var Var 2 kt METAR LFLC 010600Z AUTO VRB02KT 9999 FEW004 BKN056 14/13 Q1021 TEMPO 2000 MIFG
7:30 上午
V
55 °F 6¼ mi+ - 050° 050° 2 kt METAR LFLC 010530Z AUTO 05002KT 9999 FEW005 SCT058 13/12 Q1021 TEMPO 0500 FG VV///
7:00 上午
V
54 °F 6¼ mi+ 6.000 ft Var Var 1 kt METAR LFLC 010500Z AUTO VRB01KT 9999 BKN060 12/12 Q1020 TEMPO 0500 FG VV///
6:30 上午
V
54 °F 6¼ mi+ 6.200 ft 360° 360° 1 kt METAR LFLC 010430Z AUTO 36001KT 9999 OVC062 12/12 Q1020 TEMPO 0500 FG VV///
6:00 上午
V
54 °F 6¼ mi+ 6.400 ft Var Var 2 kt METAR LFLC 010400Z AUTO VRB02KT 9999 FEW002 OVC064 12/12 Q1020 TEMPO 0500 FG VV///
5:30 上午
V
54 °F 6¼ mi+ 6.400 ft Var 000° 0 kt METAR LFLC 010330Z AUTO 00000KT 9999 OVC064 12/11 Q1020 TEMPO 0500 FG VV///
5:00 上午
V
54 °F 6¼ mi+ 6.400 ft 300° 300° 3 kt METAR LFLC 010300Z AUTO 30003KT 9999 FEW050 BKN064 BKN074 12/11 Q1020 TEMPO 0500 FG VV///
4:30 上午
V
54 °F 6¼ mi+ 4.600 ft Var Var 2 kt METAR LFLC 010230Z AUTO VRB02KT 9999 BKN046 OVC066 12/12 Q1020 TEMPO 0500 FG VV///
4:00 上午
V
54 °F 6¼ mi+ 4.400 ft 040° 040° 1 kt METAR LFLC 010200Z AUTO 04001KT 9999 FEW036 BKN044 BKN054 12/12 Q1020 TEMPO 0500 FG VV///
3:30 上午
V
54 °F 6¼ mi+ 7.200 ft Var Var 2 kt METAR LFLC 010130Z AUTO VRB02KT 9999 FEW031 SCT052 BKN072 12/12 Q1020 TEMPO 0500 FG VV///
3:00 上午
V
55 °F 6¼ mi+ 7.000 ft Var Var 2 kt METAR LFLC 010100Z AUTO VRB02KT 9999 FEW056 OVC070 13/12 Q1020 TEMPO 0500 FG VV///
2:30 上午
V
54 °F 6¼ mi+ 7.000 ft Var Var 2 kt METAR LFLC 010030Z AUTO VRB02KT 9999 FEW045 SCT060 BKN070 12/12 Q1020 TEMPO 0500 FG VV///
2:00 上午
V
54 °F 6¼ mi+ 5.800 ft 170° 170° 3 kt METAR LFLC 010000Z AUTO 17003KT 9999 FEW028 BKN058 BKN098 12/12 Q1020 TEMPO 0500 FG VV///
1:30 上午
V
54 °F 6¼ mi+ - 040° 040° 2 kt METAR LFLC 302330Z AUTO 04002KT CAVOK 12/11 Q1020 TEMPO 0500 FG VV///
1:00 上午
V
55 °F 6¼ mi+ - 170° 170° 2 kt METAR LFLC 302300Z AUTO 17002KT CAVOK 13/12 Q1019 NOSIG
12:30 上午
V
55 °F 6¼ mi+ - Var Var 2 kt METAR LFLC 302230Z AUTO VRB02KT CAVOK 13/12 Q1019 NOSIG
12:00 上午
V
55 °F 6¼ mi+ - Var Var 1 kt METAR LFLC 302200Z AUTO VRB01KT CAVOK 13/13 Q1019 NOSIG

2022年6月30日

时间 代码 天气 温度 能见度 天花板 METAR/SPECI
11:30 下午
V
55 °F 6¼ mi+ 16.000 ft Var Var 2 kt METAR LFLC 302130Z AUTO VRB02KT 9999 FEW020 SCT120 OVC160 13/13 Q1019 NOSIG
11:00 下午
V
55 °F 6¼ mi+ 9.800 ft Var Var 3 kt METAR LFLC 302100Z AUTO VRB03KT 9999 -RA FEW008 SCT028 OVC098 13/13 Q1019 NOSIG
10:30 下午
V
55 °F 6¼ mi+ 9.800 ft Var Var 3 kt METAR LFLC 302030Z AUTO VRB03KT 9999 -RA SCT025 SCT064 BKN098 13/13 Q1019 NOSIG
10:00 下午
M
55 °F 6¼ mi+ 2.800 ft 130° 130° 4 kt METAR LFLC 302000Z AUTO 13004KT 9999 FEW021/// BKN028/// BKN100/// ///TCU 13/12 Q1018 BECMG BKN040
9:30 下午
M
57 °F 6¼ mi+ 1.300 ft 130° 130° 4 kt METAR LFLC 301930Z AUTO 13004KT 9999 BKN013/// BKN025/// BKN084/// ///TCU 14/13 Q1019 BECMG BKN040
9:00 下午
M
55 °F 6¼ mi+ 1.900 ft 100° 100° 3 kt METAR LFLC 301900Z AUTO 10003KT 080V140 9999 BKN019/// BKN031/// BKN056/// ///TCU 13/13 Q1018 BECMG BKN040
8:30 下午
M
55 °F 6¼ mi+ 2.500 ft 100° 100° 4 kt METAR LFLC 301830Z AUTO 10004KT 9999 -RA FEW007/// SCT017/// BKN025/// //////CB 13/13 Q1018 BECMG BKN040
8:00 下午
M
55 °F 6¼ mi+ 1.900 ft 090° 090° 5 kt METAR LFLC 301800Z AUTO 09005KT 9999 RA SCT010/// BKN019/// BKN056/// //////CB 13/13 Q1017 TEMPO 2000 BKN007
7:30 下午
M
57 °F 4⅜ mi 2.700 ft 080° 080° 3 kt METAR LFLC 301730Z AUTO 08003KT 7000 RA SCT010/// BKN027/// BKN043/// ///CB 14/13 Q1017 TEMPO 2000 BKN007
7:00 下午
M
57 °F 5 mi 2.400 ft 070° 070° 4 kt METAR LFLC 301700Z AUTO 07004KT 040V120 8000 RA SCT009/// BKN024/// BKN033/// ///CB 14/13 Q1017 TEMPO 2000 BKN007
6:30 下午
M
57 °F 6¼ mi+ 1.600 ft 080° 080° 5 kt METAR LFLC 301630Z AUTO 08005KT 9999 -RA SCT009/// BKN016/// BKN030/// //////CB 14/13 Q1017 TEMPO 4000 -RA BECMG BKN016 BKN025
6:00 下午
I
57 °F 6¼ mi+ 800 ft 060° 060° 5 kt METAR LFLC 301600Z AUTO 06005KT 030V090 9999 -RA BKN008/// BKN015/// OVC060/// //////TCU 14/13 Q1017 TEMPO 4000 -RA BKN008
5:30 下午
I
57 °F 6¼ mi+ 800 ft 060° 060° 5 kt METAR LFLC 301530Z AUTO 06005KT 9999 -RA BKN008 BKN020 OVC052 14/13 Q1017 TEMPO 4000 -RA
5:00 下午
I
57 °F 6¼ mi+ 700 ft 040° 040° 4 kt METAR LFLC 301500Z AUTO 04004KT 010V090 9999 -RA BKN007 BKN013 BKN025 14/13 Q1017 TEMPO 4000 -RA
4:30 下午
I
57 °F 6¼ mi+ 700 ft 060° 060° 5 kt METAR LFLC 301430Z AUTO 06005KT 030V090 9999 -RA BKN007 BKN011 BKN023 14/13 Q1017 TEMPO 4000 -RA BKN014
4:00 下午
V
57 °F 6¼ mi+ 4.600 ft 060° 060° 5 kt METAR LFLC 301400Z AUTO 06005KT 020V090 9999 FEW009 OVC046 14/12 Q1017 TEMPO 4000 -RA BKN014
3:30 下午
V
57 °F 6¼ mi+ 4.100 ft 060° 060° 8 kt METAR LFLC 301330Z AUTO 06008KT 9999 OVC041 14/12 Q1017 TEMPO 4000 -RA BKN014 BECMG 34010KT
3:00 下午
V
57 °F 6¼ mi+ 3.900 ft 040° 040° 9 kt METAR LFLC 301300Z AUTO 04009KT 9999 -RA OVC039 14/12 Q1016 TEMPO 4000 -RA BKN014 BECMG 34010KT
2:30 下午
V
59 °F 6¼ mi+ 3.800 ft 020° 020° 8 kt METAR LFLC 301230Z AUTO 02008KT 9999 OVC038 15/11 Q1016 TEMPO 4000 -RA BKN014
2:00 下午
V
59 °F 6¼ mi+ 3.300 ft 360° 360° 9 kt METAR LFLC 301200Z AUTO 36009KT 9999 OVC033 15/11 Q1015 TEMPO 4000 -RA BKN014
1:30 下午
M
59 °F 6¼ mi+ 2.900 ft 340° 340° 10 kt METAR LFLC 301130Z AUTO 34010KT 9999 SCT023 OVC029 15/12 Q1015 TEMPO 4000 -RA BKN014
1:00 下午
M
61 °F 6¼ mi+ 1.800 ft 330° 330° 10 kt METAR LFLC 301100Z AUTO 33010KT 290V360 9999 -RA BKN018 OVC023 16/12 Q1014 NOSIG
12:30 下午
M
64 °F 6¼ mi+ 1.800 ft 340° 340° 8 kt METAR LFLC 301030Z AUTO 34008KT 310V010 9999 BKN018 BKN023 BKN032 18/15 Q1014 NOSIG
12:00 下午
V
66 °F 6¼ mi+ 3.400 ft 360° 360° 6 kt METAR LFLC 301000Z AUTO 36006KT 330V040 9999 FEW017 BKN034 BKN049 19/15 Q1013 TEMPO BKN007
11:30 上午
V
66 °F 6¼ mi+ 7.400 ft 010° 010° 4 kt METAR LFLC 300930Z AUTO 01004KT 300V070 9999 FEW021 BKN074 19/16 Q1013 TEMPO BKN007
11:00 上午
V
64 °F 6¼ mi+ 7.400 ft 010° 010° 4 kt METAR LFLC 300900Z AUTO 01004KT 330V050 9999 SCT019 BKN074 BKN200 18/15 Q1013 TEMPO BKN007
10:30 上午
V
64 °F 6¼ mi+ - Var Var 3 kt METAR LFLC 300830Z AUTO VRB03KT CAVOK 18/15 Q1013 TEMPO BKN007
10:00 上午
M
64 °F 6¼ mi+ 1.300 ft Var Var 2 kt METAR LFLC 300800Z AUTO VRB02KT 9999 BKN013 OVC078 18/15 Q1013 TEMPO BKN007
9:30 上午
M
64 °F 6¼ mi+ 1.000 ft Var Var 2 kt METAR LFLC 300730Z AUTO VRB02KT 9999 OVC010 18/15 Q1013 NOSIG
较旧的数据

下载我们的应用程序

在您的手机和平板电脑上轻松访问所有航空天气。
有许多网站上没有的功能,如离线支持和个人机场列表。

Studio Eveline

Benalmádena
España

我们和第三方通过cookies跟踪您在我们网站上的上网行为。如果您继续,我们认为您同意我们的cookie政策。 了解更多